Bulawayo Woodvale, Zimbabwe

4:33 PM CAT on August 29, 2014 (GMT +0200)
Bulawayo | Change Station
CLOSE
Current Station
Airport
Location: Bulawayo Woodvale,
Elevation: 4350 ft
Nearby Weather Stations

Elev 4350 ft 20.02 °S, 28.62 °E | Updated 1 hour ago

Clear
Clear
79 °F
Feels Like 79 °F
N
8
Wind Variable Wind from Variable

Today
High -- | Low -- °F
--% Chance of Precip.
Yesterday
High -- | Low -- °F
Precip. -- in
6:16 AM 5:56 PM
Waxing Crescent, 14% visible
Pressure 30.12 in
Visibility -9999.0 miles
Clouds
Dew Point -2 °F
Humidity 4%
Rainfall 0.00 in
Snow Depth Not available.
UV Not available.
Pollen Not available.
Air Quality Not available.
Flu Activity Not available.
METAR FVBU 291300Z VRB07KT CAVOK 26/M19 Q1020 NOSIG

More Conditions Fewer Conditions

Pressure 30.12 in
Visibility -9999.0 miles
Clouds
Dew Point -2 °F
Humidity 4%
Rainfall 0.00 in
Snow Depth Not available.
UV Not available.
Pollen Not available.
Air Quality Not available.
Flu Activity Not available.
METAR FVBU 291300Z VRB07KT CAVOK 26/M19 Q1020 NOSIG

More Conditions Fewer Conditions

10-Day Weather Forecast

Almanac

Astronomy

Aug. 29, 2014 Rise Set
Actual Time 6:16 AM CAT 5:56 PM CAT
Civil Twilight 5:54 AM CAT 6:18 PM CAT
Nautical Twilight 5:28 AM CAT 6:44 PM CAT
Astronomical Twilight 5:03 AM CAT 7:10 PM CAT
Moon 8:26 AM CAT 9:11 PM CAT
Length of Visible Light 12h 24m
Length of Day
11h 39m
Tomorrow will be 1m 4s longer.
Waxing Crescent, 14% of the Moon is Illuminated
Today
Waxing Crescent
Sep 2
First Quarter
Sep 8
Full
Sep 15
Last Quarter
Sep 24
New

Yesterday's Extremes

Country Highs Country Lows

Community

WunderPhotos

Upload Photos

1,748,255 photos uploaded!

Nearby

Snow Depth

Not available.

Earthquake Activity

City Distance Mag. Time & Date
No recent earthquake activity has been reported nearby.
Minimum magnitude displayed is 2.5.

Coastal Water Temperatures

Place Temperature
No Stations Reporting

Nearby Weather Stations